Time;durP1;ratioP1;P1;durP2;ratioP2;P2;SDS_P1;SDS_P2;PMS_P1;PMS_P2;Temp;Humidity;BMP_temperature;BMP_pressure;BME280_temperature;BME280_humidity;BME280_pressure;Samples;Min_cycle;Max_cycle;Signal;HPM_P1;HPM_P2
2023/08/26 00:00:31;;;;;;;5.88;5.20;;;20.20;99.90;;;;;;5002652;28;20041;-36
2023/08/26 00:02:57;;;;;;;7.93;5.05;;;20.10;99.90;;;;;;5002537;28;20069;-38
2023/08/26 00:05:23;;;;;;;8.02;5.22;;;19.90;99.90;;;;;;5003588;28;20037;-39
2023/08/26 00:07:48;;;;;;;7.78;5.55;;;19.80;99.90;;;;;;5001445;28;20041;-36
2023/08/26 00:10:14;;;;;;;6.88;4.75;;;19.90;99.90;;;;;;5000998;28;20541;-38
2023/08/26 00:12:40;;;;;;;5.78;4.78;;;19.90;99.90;;;;;;4996352;28;20065;-39
2023/08/26 00:15:05;;;;;;;6.47;4.97;;;20.00;99.90;;;;;;4998494;28;20051;-40
2023/08/26 00:17:32;;;;;;;5.15;4.65;;;20.00;99.90;;;;;;5005280;28;20062;-38
2023/08/26 00:19:58;;;;;;;6.55;4.70;;;20.00;99.90;;;;;;5000960;28;20236;-38
2023/08/26 00:22:24;;;;;;;6.88;4.85;;;20.00;99.90;;;;;;4998307;28;20030;-36
2023/08/26 00:24:50;;;;;;;7.03;4.80;;;20.10;99.90;;;;;;4996237;28;21015;-39
2023/08/26 00:27:16;;;;;;;6.07;4.97;;;20.10;99.90;;;;;;5000074;28;20029;-41
2023/08/26 00:29:42;;;;;;;6.05;5.32;;;20.00;99.90;;;;;;4998614;28;20639;-39
2023/08/26 00:32:07;;;;;;;6.45;5.18;;;20.00;99.90;;;;;;4997769;28;20057;-34
2023/08/26 00:34:33;;;;;;;8.60;5.32;;;20.00;99.90;;;;;;5000641;28;20033;-41
2023/08/26 00:36:59;;;;;;;6.38;5.03;;;20.00;99.90;;;;;;5000638;28;20139;-40
2023/08/26 00:39:24;;;;;;;8.48;5.38;;;19.90;99.90;;;;;;4995369;28;20068;-39
2023/08/26 00:41:50;;;;;;;7.18;5.95;;;19.80;99.90;;;;;;4999294;28;20027;-41
2023/08/26 00:44:15;;;;;;;6.90;5.22;;;19.80;99.90;;;;;;5001456;28;20019;-35
2023/08/26 00:46:41;;;;;;;7.78;5.88;;;19.80;99.90;;;;;;4998984;28;20053;-38
2023/08/26 00:49:07;;;;;;;9.27;6.00;;;19.80;99.90;;;;;;4993636;28;20031;-33
2023/08/26 00:51:33;;;;;;;7.93;5.53;;;19.80;99.90;;;;;;5001549;28;20092;-40
2023/08/26 00:53:59;;;;;;;9.48;6.43;;;19.90;99.90;;;;;;5002512;28;20038;-37
2023/08/26 00:56:25;;;;;;;8.13;5.80;;;19.80;99.90;;;;;;4999685;28;20450;-37
2023/08/26 00:58:51;;;;;;;8.80;6.05;;;19.80;99.90;;;;;;4997948;28;20038;-38
2023/08/26 01:01:17;;;;;;;6.53;5.15;;;19.80;99.90;;;;;;4999463;28;20567;-39
2023/08/26 01:03:43;;;;;;;4.78;4.18;;;19.70;99.90;;;;;;4998453;28;20017;-40
2023/08/26 01:06:08;;;;;;;5.47;3.65;;;19.70;99.90;;;;;;4996789;28;20037;-40
2023/08/26 01:08:34;;;;;;;3.92;3.40;;;19.70;99.90;;;;;;4999987;28;20268;-35
2023/08/26 01:14:30;;;;;;;5.28;3.80;;;19.80;99.90;;;;;;5000498;28;20691;-35
2023/08/26 01:16:56;;;;;;;5.35;3.83;;;19.70;99.90;;;;;;5000199;28;20042;-38
2023/08/26 01:19:40;;;;;;;6.22;3.75;;;19.80;99.90;;;;;;4998426;28;20032;-38
2023/08/26 01:22:07;;;;;;;5.38;4.68;;;19.80;99.90;;;;;;4999022;28;20069;-38
2023/08/26 01:24:35;;;;;;;6.88;3.80;;;19.80;99.90;;;;;;4999379;28;20034;-38
2023/08/26 01:27:01;;;;;;;4.68;3.95;;;19.80;99.90;;;;;;5002846;28;20041;-40
2023/08/26 01:29:26;;;;;;;5.88;4.47;;;19.80;99.90;;;;;;4997822;28;20029;-36
2023/08/26 01:32:18;;;;;;;4.47;4.07;;;19.80;99.90;;;;;;4999342;28;20065;-37
2023/08/26 01:34:49;;;;;;;4.32;3.92;;;19.80;99.90;;;;;;4961484;28;20067;-39
2023/08/26 01:37:18;;;;;;;4.43;4.00;;;19.80;99.90;;;;;;4997983;28;20525;-38
2023/08/26 01:39:44;;;;;;;4.78;3.67;;;19.80;99.90;;;;;;4996233;28;20034;-38
2023/08/26 01:42:12;;;;;;;4.47;4.07;;;19.80;99.90;;;;;;5000613;28;20048;-39
2023/08/26 01:44:39;;;;;;;6.80;4.60;;;19.80;99.90;;;;;;4998404;28;20184;-41
2023/08/26 01:47:05;;;;;;;8.48;4.22;;;19.70;99.90;;;;;;4997043;28;20389;-40
2023/08/26 01:49:30;;;;;;;5.15;4.20;;;19.80;99.90;;;;;;4998785;28;20037;-40
2023/08/26 01:51:56;;;;;;;6.55;4.50;;;19.80;99.90;;;;;;4997105;28;20580;-38
2023/08/26 01:54:21;;;;;;;6.38;4.10;;;19.80;99.90;;;;;;4999407;28;20038;-39
2023/08/26 01:56:47;;;;;;;5.93;4.15;;;19.80;99.90;;;;;;4997568;28;20034;-35
2023/08/26 01:59:12;;;;;;;7.13;4.20;;;19.80;99.90;;;;;;5000973;28;20037;-40
2023/08/26 02:01:38;;;;;;;10.15;4.90;;;19.80;99.90;;;;;;4995330;28;20044;-38
2023/08/26 02:04:04;;;;;;;5.80;4.35;;;19.80;99.90;;;;;;4994685;28;20530;-37
2023/08/26 02:06:29;;;;;;;4.40;4.00;;;19.80;99.90;;;;;;5000354;28;20022;-38
2023/08/26 02:08:55;;;;;;;8.10;5.63;;;19.80;99.90;;;;;;4997939;28;20148;-39
2023/08/26 02:11:21;;;;;;;5.43;4.03;;;19.80;99.90;;;;;;4999310;28;20495;-40
2023/08/26 02:13:46;;;;;;;5.53;4.13;;;19.80;99.90;;;;;;4993639;28;20126;-39
2023/08/26 02:16:12;;;;;;;6.53;4.40;;;19.80;99.90;;;;;;5000053;28;20037;-35
2023/08/26 02:18:38;;;;;;;5.57;4.45;;;19.80;99.90;;;;;;4998370;28;20056;-33
2023/08/26 02:21:04;;;;;;;6.10;4.15;;;19.80;99.90;;;;;;5001002;28;20030;-39
2023/08/26 02:23:30;;;;;;;7.15;4.65;;;19.70;99.90;;;;;;5001038;28;20108;-38
2023/08/26 02:25:55;;;;;;;4.97;4.00;;;19.70;99.90;;;;;;5000420;28;20041;-39
2023/08/26 02:28:21;;;;;;;6.20;4.45;;;19.70;99.90;;;;;;4998230;28;20041;-39
2023/08/26 02:30:46;;;;;;;5.32;4.00;;;19.60;99.90;;;;;;4992109;28;20038;-36
2023/08/26 02:33:12;;;;;;;4.93;4.38;;;19.60;99.90;;;;;;4992437;28;20525;-36
2023/08/26 02:35:38;;;;;;;4.97;4.32;;;19.60;99.90;;;;;;5002273;28;20033;-37
2023/08/26 02:38:03;;;;;;;6.35;4.30;;;19.60;99.90;;;;;;4999201;28;20248;-38
2023/08/26 02:40:29;;;;;;;8.40;5.07;;;19.60;99.90;;;;;;5000510;28;20113;-31
2023/08/26 02:42:54;;;;;;;6.55;4.72;;;19.50;99.90;;;;;;5000381;28;20034;-33
2023/08/26 02:45:20;;;;;;;6.15;4.40;;;19.50;99.90;;;;;;5007266;28;20044;-31
2023/08/26 02:47:46;;;;;;;6.28;4.68;;;19.50;99.90;;;;;;5003796;28;20058;-33
2023/08/26 02:50:11;;;;;;;5.43;4.57;;;19.30;99.90;;;;;;5006586;28;20034;-32
2023/08/26 02:52:37;;;;;;;7.07;4.68;;;19.40;99.90;;;;;;5008768;28;20069;-31
2023/08/26 02:55:03;;;;;;;7.03;4.38;;;19.40;99.90;;;;;;5009078;28;20044;-31
2023/08/26 02:57:28;;;;;;;8.18;5.05;;;19.30;99.90;;;;;;4997034;28;20038;-33
2023/08/26 02:59:54;;;;;;;7.75;5.55;;;19.20;99.90;;;;;;5006133;28;20029;-32
2023/08/26 03:02:24;;;;;;;6.10;4.78;;;19.20;99.90;;;;;;4992240;28;20038;-34
2023/08/26 03:04:50;;;;;;;7.95;4.80;;;19.20;99.90;;;;;;5005478;28;20033;-31
2023/08/26 03:07:16;;;;;;;7.57;4.85;;;19.20;99.90;;;;;;5002158;28;20037;-37
2023/08/26 03:09:42;;;;;;;6.50;4.90;;;19.20;99.90;;;;;;5000366;28;20030;-39
2023/08/26 03:12:07;;;;;;;6.28;4.93;;;19.20;99.90;;;;;;4997851;28;20040;-37
2023/08/26 03:14:33;;;;;;;6.18;4.85;;;19.20;99.90;;;;;;5000711;28;20492;-40
2023/08/26 03:16:58;;;;;;;5.60;5.00;;;19.20;99.90;;;;;;5001455;28;20056;-36
2023/08/26 03:19:25;;;;;;;7.82;4.57;;;19.20;99.90;;;;;;5000255;28;20076;-40
2023/08/26 03:21:51;;;;;;;6.85;4.53;;;19.20;99.90;;;;;;4994657;28;20031;-40
2023/08/26 03:24:17;;;;;;;6.75;4.95;;;19.30;99.90;;;;;;5002220;28;20032;-38
2023/08/26 03:26:45;;;;;;;9.52;5.13;;;19.30;99.90;;;;;;4999001;28;20023;-36
2023/08/26 03:29:11;;;;;;;7.18;4.68;;;19.40;99.90;;;;;;4999998;28;20049;-39
2023/08/26 03:31:38;;;;;;;7.18;4.90;;;19.30;99.90;;;;;;4999562;28;20073;-37
2023/08/26 03:34:03;;;;;;;8.38;5.38;;;19.30;99.90;;;;;;4997729;28;20064;-38
2023/08/26 03:36:29;;;;;;;6.88;4.55;;;19.40;99.90;;;;;;5005393;28;20487;-37
2023/08/26 03:38:55;;;;;;;6.20;4.50;;;19.40;99.90;;;;;;5001901;28;20113;-37
2023/08/26 03:41:21;;;;;;;6.18;4.57;;;19.40;99.90;;;;;;5005111;28;20383;-40
2023/08/26 03:43:46;;;;;;;7.30;4.88;;;19.40;99.90;;;;;;4998185;28;20037;-38
2023/08/26 03:46:12;;;;;;;7.80;5.00;;;19.40;99.90;;;;;;5003181;28;20519;-37
2023/08/26 03:48:38;;;;;;;7.85;5.03;;;19.40;99.90;;;;;;4997169;28;20542;-39
2023/08/26 03:51:03;;;;;;;6.82;5.47;;;19.30;99.90;;;;;;4997529;28;20057;-39
2023/08/26 03:53:29;;;;;;;7.78;5.00;;;19.30;99.90;;;;;;4993958;28;20070;-36
2023/08/26 03:55:54;;;;;;;8.18;5.13;;;19.40;99.90;;;;;;4998341;28;20034;-39
2023/08/26 03:58:20;;;;;;;7.53;4.65;;;19.40;99.90;;;;;;4999686;28;20033;-41
2023/08/26 04:00:46;;;;;;;6.47;4.53;;;19.40;99.90;;;;;;5000836;28;20043;-40
2023/08/26 04:03:11;;;;;;;6.00;4.40;;;19.40;99.90;;;;;;4998171;28;20031;-38
2023/08/26 04:05:37;;;;;;;5.75;4.90;;;19.40;99.90;;;;;;4998468;28;20372;-35
2023/08/26 04:08:03;;;;;;;8.60;4.78;;;19.50;99.90;;;;;;5002352;28;20113;-39
2023/08/26 04:10:29;;;;;;;5.43;4.72;;;19.50;99.90;;;;;;4997465;28;20030;-37
2023/08/26 04:13:01;;;;;;;7.07;5.70;;;19.50;99.90;;;;;;5001043;28;20243;-39
2023/08/26 04:15:26;;;;;;;6.97;4.60;;;19.40;99.90;;;;;;5000640;28;20041;-38
2023/08/26 04:17:52;;;;;;;7.00;4.47;;;19.50;99.90;;;;;;4996723;28;20022;-37
2023/08/26 04:20:18;;;;;;;6.60;4.53;;;19.50;99.90;;;;;;5003658;28;20549;-40
2023/08/26 04:22:44;;;;;;;6.05;4.10;;;19.50;99.90;;;;;;5000752;28;20498;-41
2023/08/26 04:25:09;;;;;;;6.18;4.43;;;19.40;99.90;;;;;;5000253;28;20117;-38
2023/08/26 04:27:35;;;;;;;6.07;4.78;;;19.50;99.90;;;;;;5001128;28;20161;-36
2023/08/26 04:30:01;;;;;;;4.78;4.22;;;19.40;99.90;;;;;;4995912;28;20037;-36
2023/08/26 04:32:27;;;;;;;5.28;4.07;;;19.40;99.90;;;;;;4994877;28;20714;-37
2023/08/26 04:34:52;;;;;;;5.88;4.10;;;19.40;99.90;;;;;;5002675;28;20495;-37
2023/08/26 04:37:22;;;;;;;5.80;4.40;;;19.40;99.90;;;;;;4998093;28;20065;-39
2023/08/26 04:39:48;;;;;;;5.60;4.28;;;19.40;99.90;;;;;;5000001;28;20037;-40
2023/08/26 04:42:14;;;;;;;5.85;4.72;;;19.50;99.90;;;;;;5001534;28;20417;-38
2023/08/26 04:44:39;;;;;;;6.70;4.50;;;19.50;99.90;;;;;;4999271;28;20029;-39
2023/08/26 04:47:05;;;;;;;6.07;4.63;;;19.50;99.90;;;;;;5000419;28;20033;-40
2023/08/26 04:49:34;;;;;;;6.18;4.38;;;19.40;99.90;;;;;;4991597;28;20030;-39
2023/08/26 04:52:00;;;;;;;5.18;4.30;;;19.40;99.90;;;;;;5002489;28;20046;-37
2023/08/26 04:54:25;;;;;;;5.85;4.35;;;19.40;99.90;;;;;;5000592;28;20095;-40
2023/08/26 04:56:51;;;;;;;5.75;4.50;;;19.50;99.90;;;;;;4999714;28;20112;-40
2023/08/26 04:59:16;;;;;;;5.22;4.45;;;19.50;99.90;;;;;;4997749;28;20063;-31
2023/08/26 05:01:42;;;;;;;4.47;4.07;;;19.50;99.90;;;;;;4998387;28;20042;-34
2023/08/26 05:04:08;;;;;;;5.10;4.40;;;19.50;99.90;;;;;;5001125;28;20034;-36
2023/08/26 05:06:34;;;;;;;5.68;4.25;;;19.60;99.90;;;;;;5001852;28;20038;-30
2023/08/26 05:08:59;;;;;;;5.85;4.28;;;19.60;99.90;;;;;;4999835;28;20038;-32
2023/08/26 05:11:25;;;;;;;5.55;4.10;;;19.60;99.90;;;;;;4996098;28;20589;-33
2023/08/26 05:13:51;;;;;;;4.68;4.05;;;19.60;99.90;;;;;;5000227;28;20079;-34
2023/08/26 05:16:17;;;;;;;6.97;4.38;;;19.60;99.90;;;;;;5002805;28;20048;-34
2023/08/26 05:18:42;;;;;;;5.25;4.13;;;19.60;99.90;;;;;;4995777;28;20026;-32
2023/08/26 05:21:08;;;;;;;4.68;4.13;;;19.50;99.90;;;;;;4995440;28;20559;-34
2023/08/26 05:23:34;;;;;;;4.80;3.88;;;19.50;99.90;;;;;;4999092;28;20049;-34
2023/08/26 05:25:59;;;;;;;7.05;4.00;;;19.50;99.90;;;;;;4995062;28;20109;-34
2023/08/26 05:28:25;;;;;;;6.00;4.22;;;19.50;99.90;;;;;;5002046;28;20121;-31
2023/08/26 05:30:50;;;;;;;8.88;4.65;;;19.50;99.90;;;;;;5002208;28;20037;-35
2023/08/26 05:33:16;;;;;;;4.45;3.70;;;19.50;99.90;;;;;;5001149;28;20651;-32
2023/08/26 05:35:43;;;;;;;5.15;4.18;;;19.60;99.90;;;;;;4998847;28;20026;-34
2023/08/26 05:38:08;;;;;;;5.25;3.95;;;19.60;99.90;;;;;;4999694;28;20062;-34
2023/08/26 05:40:34;;;;;;;5.50;4.05;;;19.60;99.90;;;;;;5000377;28;20561;-32
2023/08/26 05:43:00;;;;;;;5.22;3.92;;;19.50;99.90;;;;;;5003814;28;20031;-36
2023/08/26 05:45:26;;;;;;;7.03;4.07;;;19.50;99.90;;;;;;4996862;28;20108;-33
2023/08/26 05:47:52;;;;;;;4.85;4.00;;;19.50;99.90;;;;;;4998729;28;20629;-31
2023/08/26 05:50:18;;;;;;;7.70;4.25;;;19.60;99.90;;;;;;4999335;28;20033;-31
2023/08/26 05:52:44;;;;;;;6.53;3.72;;;19.60;99.90;;;;;;5000941;28;20121;-32
2023/08/26 05:55:10;;;;;;;5.60;4.10;;;19.60;99.90;;;;;;4995878;28;20749;-35
2023/08/26 05:57:37;;;;;;;6.13;4.45;;;19.60;99.90;;;;;;4999191;28;20030;-32
2023/08/26 06:00:06;;;;;;;4.82;4.18;;;19.60;99.90;;;;;;5004522;28;20042;-34
2023/08/26 06:02:32;;;;;;;5.63;4.40;;;19.70;99.90;;;;;;5001975;28;20045;-35
2023/08/26 06:04:59;;;;;;;6.32;4.20;;;19.70;99.90;;;;;;5003345;28;20523;-32
2023/08/26 06:07:24;;;;;;;7.68;4.10;;;19.70;99.90;;;;;;4999732;28;20034;-32
2023/08/26 06:09:50;;;;;;;6.63;4.07;;;19.70;99.90;;;;;;4993784;28;20048;-38
2023/08/26 06:12:15;;;;;;;4.55;4.07;;;19.80;99.90;;;;;;4996797;28;20049;-40
2023/08/26 06:14:41;;;;;;;5.50;4.20;;;19.80;99.90;;;;;;5001065;28;20045;-37
2023/08/26 06:17:07;;;;;;;6.60;4.35;;;19.90;99.90;;;;;;5000751;28;20032;-39
2023/08/26 06:19:32;;;;;;;6.57;4.45;;;19.90;99.90;;;;;;5000239;28;20030;-37
2023/08/26 06:21:58;;;;;;;6.18;4.63;;;20.00;99.90;;;;;;4998697;28;20058;-37
2023/08/26 06:24:23;;;;;;;5.72;4.03;;;20.00;99.90;;;;;;4998528;28;20706;-40
2023/08/26 06:26:49;;;;;;;6.40;4.28;;;20.00;99.90;;;;;;5003410;28;20551;-39
2023/08/26 06:29:17;;;;;;;5.13;4.45;;;20.10;99.90;;;;;;4998322;28;20036;-39
2023/08/26 06:31:42;;;;;;;;;;;20.10;99.90;;;;;;4998368;28;20088;-40
2023/08/26 06:34:08;;;;;;;5.32;4.10;;;20.20;99.90;;;;;;5001410;28;20326;-40
2023/08/26 06:36:34;;;;;;;4.65;3.92;;;20.20;99.90;;;;;;5003184;28;20053;-39
2023/08/26 06:38:59;;;;;;;6.18;3.90;;;20.30;99.90;;;;;;4998088;28;20085;-38
2023/08/26 06:41:25;;;;;;;5.32;4.22;;;20.30;99.90;;;;;;5005724;28;20034;-32
2023/08/26 06:43:50;;;;;;;5.25;4.32;;;20.30;99.90;;;;;;5000444;28;20021;-36
2023/08/26 06:46:16;;;;;;;5.30;4.38;;;20.40;99.90;;;;;;5000439;28;20106;-33
2023/08/26 06:48:42;;;;;;;5.88;4.80;;;20.40;99.90;;;;;;4996553;28;20022;-34
2023/08/26 06:51:07;;;;;;;7.88;4.47;;;20.40;99.90;;;;;;4998763;28;20504;-34
2023/08/26 06:53:33;;;;;;;5.13;4.50;;;20.50;99.90;;;;;;5003127;28;20030;-33
2023/08/26 06:55:59;;;;;;;8.13;4.70;;;20.50;99.90;;;;;;5001853;28;20036;-32
2023/08/26 06:58:24;;;;;;;6.00;4.45;;;20.50;99.90;;;;;;5014488;28;20029;-34
2023/08/26 07:00:50;;;;;;;5.45;4.50;;;20.50;99.90;;;;;;5002097;28;20507;-32
2023/08/26 07:03:16;;;;;;;6.65;5.03;;;20.70;99.90;;;;;;4996975;28;20034;-35
2023/08/26 07:05:46;;;;;;;5.68;4.72;;;20.80;99.90;;;;;;4999000;28;20053;-35
2023/08/26 07:08:13;;;;;;;7.50;5.00;;;20.90;99.90;;;;;;5001562;28;20434;-34
2023/08/26 07:10:39;;;;;;;6.35;5.10;;;21.10;99.90;;;;;;4999918;28;20083;-34
2023/08/26 07:13:05;;;;;;;6.10;4.85;;;21.20;99.90;;;;;;5003224;28;20064;-32
2023/08/26 07:15:30;;;;;;;7.25;5.47;;;21.30;99.90;;;;;;5002907;28;20025;-32
2023/08/26 07:17:56;;;;;;;6.28;5.07;;;21.40;99.90;;;;;;5002955;28;20041;-34
2023/08/26 07:20:22;;;;;;;9.25;5.90;;;21.50;99.90;;;;;;5000627;28;20036;-40
2023/08/26 07:22:48;;;;;;;6.78;5.22;;;21.60;99.90;;;;;;4998199;28;20454;-37
2023/08/26 07:25:13;;;;;;;6.13;5.13;;;21.70;99.90;;;;;;5002818;28;20589;-40
2023/08/26 07:27:40;;;;;;;9.10;5.63;;;21.60;99.90;;;;;;4997084;28;20026;-38
2023/08/26 07:30:06;;;;;;;6.22;4.93;;;21.70;99.90;;;;;;4998772;28;20204;-38
2023/08/26 07:32:32;;;;;;;6.63;5.35;;;21.80;99.90;;;;;;5000164;28;20033;-39
2023/08/26 07:34:57;;;;;;;5.90;4.65;;;22.00;99.90;;;;;;5001972;28;20738;-38
2023/08/26 07:37:23;;;;;;;7.43;5.32;;;22.10;99.90;;;;;;5001100;28;20495;-40
2023/08/26 07:39:52;;;;;;;8.93;5.32;;;22.00;99.90;;;;;;5000764;28;20476;-38
2023/08/26 07:42:17;;;;;;;5.93;4.72;;;21.80;99.90;;;;;;5005002;28;20049;-38
2023/08/26 07:44:43;;;;;;;7.10;5.60;;;21.90;99.90;;;;;;5005027;28;20034;-39
2023/08/26 07:47:09;;;;;;;6.95;4.90;;;21.80;99.90;;;;;;4998730;28;20042;-36
2023/08/26 07:49:35;;;;;;;6.88;5.10;;;21.80;99.90;;;;;;5003580;28;20101;-31
2023/08/26 07:52:00;;;;;;;5.30;4.80;;;21.90;99.90;;;;;;5002808;28;20056;-32
2023/08/26 07:54:26;;;;;;;4.75;3.92;;;22.00;99.90;;;;;;4998724;28;20029;-31
2023/08/26 07:56:52;;;;;;;5.47;3.72;;;22.20;99.90;;;;;;4997053;28;20034;-33
2023/08/26 07:59:17;;;;;;;5.60;3.75;;;22.30;99.90;;;;;;5002917;28;20672;-35
2023/08/26 08:01:43;;;;;;;5.25;3.65;;;22.30;99.90;;;;;;5004280;28;20052;-33
2023/08/26 08:04:08;;;;;;;4.82;3.92;;;22.30;99.90;;;;;;5001232;28;20089;-33
2023/08/26 08:06:34;;;;;;;5.40;4.07;;;22.30;99.90;;;;;;4999935;28;20030;-32
2023/08/26 08:09:00;;;;;;;5.78;3.95;;;22.30;99.90;;;;;;5000797;28;20025;-32
2023/08/26 08:11:25;;;;;;;5.47;3.95;;;22.10;99.90;;;;;;4994043;28;20567;-35
2023/08/26 08:13:51;;;;;;;8.50;4.15;;;22.00;99.90;;;;;;4998874;28;20028;-34
2023/08/26 08:16:17;;;;;;;8.23;4.20;;;22.10;99.90;;;;;;4999733;28;20556;-32
2023/08/26 08:18:42;;;;;;;5.90;4.20;;;22.60;99.90;;;;;;4998192;28;20026;-33
2023/08/26 08:21:09;;;;;;;9.50;4.15;;;22.90;99.90;;;;;;5002561;28;20036;-31
2023/08/26 08:23:35;;;;;;;5.47;3.75;;;23.30;99.90;;;;;;4999598;28;20083;-31
2023/08/26 08:26:01;;;;;;;5.57;3.78;;;23.60;99.90;;;;;;4999276;28;20048;-30
2023/08/26 08:28:27;;;;;;;7.10;4.30;;;24.00;99.90;;;;;;5001583;28;20029;-31
2023/08/26 08:30:52;;;;;;;5.10;4.00;;;24.10;99.90;;;;;;5000249;28;20065;-32
2023/08/26 08:33:18;;;;;;;4.75;3.88;;;23.80;99.90;;;;;;5001139;28;20026;-36
2023/08/26 08:35:44;;;;;;;5.93;3.60;;;23.60;99.90;;;;;;4996807;28;20430;-33
2023/08/26 08:38:09;;;;;;;4.63;3.40;;;23.40;99.90;;;;;;4995132;28;20739;-34
2023/08/26 08:40:37;;;;;;;5.40;3.50;;;23.40;99.90;;;;;;5004247;28;20033;-32
2023/08/26 08:43:05;;;;;;;5.78;3.60;;;23.30;99.90;;;;;;4999476;28;20655;-34
2023/08/26 08:45:31;;;;;;;7.45;3.70;;;23.20;99.90;;;;;;5002454;28;20030;-35
2023/08/26 08:47:58;;;;;;;6.53;3.90;;;23.30;99.90;;;;;;4995540;28;20038;-34
2023/08/26 08:50:24;;;;;;;8.30;4.00;;;23.20;99.90;;;;;;5000318;28;20034;-37
2023/08/26 08:52:56;;;;;;;5.63;3.78;;;23.30;99.90;;;;;;5000528;28;20597;-37
2023/08/26 08:55:22;;;;;;;8.05;3.33;;;23.60;99.90;;;;;;4998574;28;20045;-36
2023/08/26 08:57:51;;;;;;;5.22;3.38;;;23.80;99.90;;;;;;4993414;28;20035;-34
2023/08/26 09:00:18;;;;;;;8.00;4.22;;;23.90;99.90;;;;;;5001407;28;20057;-36
2023/08/26 09:02:46;;;;;;;4.37;3.37;;;23.80;99.90;;;;;;4997607;28;20041;-34
2023/08/26 09:05:12;;;;;;;4.05;2.85;;;23.50;99.90;;;;;;5001526;28;20076;-35
2023/08/26 09:07:42;;;;;;;4.10;3.33;;;23.70;99.90;;;;;;5000250;28;20075;-34
2023/08/26 09:10:11;;;;;;;4.32;3.83;;;24.10;99.90;;;;;;4995923;28;20030;-35
2023/08/26 09:12:38;;;;;;;6.25;3.92;;;24.30;99.90;;;;;;4993333;28;20045;-41
2023/08/26 09:15:04;;;;;;;4.65;3.50;;;24.40;99.90;;;;;;4995357;28;20033;-38
2023/08/26 09:17:30;;;;;;;4.65;3.60;;;24.40;99.90;;;;;;5000612;28;20383;-35
2023/08/26 09:19:58;;;;;;;4.47;3.50;;;24.50;99.90;;;;;;5003405;28;20029;-39
2023/08/26 09:22:24;;;;;;;;;;;24.70;99.90;;;;;;5001194;28;20026;-39
2023/08/26 09:25:03;;;;;;;3.92;3.53;;;24.90;99.90;;;;;;4999643;28;19920;-38
2023/08/26 09:27:32;;;;;;;4.32;3.47;;;24.80;99.90;;;;;;4996533;28;20033;-39
2023/08/26 09:29:58;;;;;;;5.28;3.67;;;25.10;99.90;;;;;;4998651;28;20502;-35
2023/08/26 09:32:35;;;;;;;5.00;3.38;;;25.20;99.90;;;;;;4996590;28;20034;-37
2023/08/26 09:35:13;;;;;;;4.93;3.47;;;24.90;99.90;;;;;;4997849;28;20037;-38
2023/08/26 09:37:41;;;;;;;7.20;4.13;;;24.80;99.90;;;;;;4996628;28;20044;-37
2023/08/26 09:40:11;;;;;;;4.32;3.70;;;24.70;99.90;;;;;;5000883;28;20102;-38
2023/08/26 09:42:37;;;;;;;6.80;4.05;;;24.30;99.90;;;;;;4994014;28;20770;-37
2023/08/26 09:45:07;;;;;;;5.53;3.65;;;24.00;99.90;;;;;;5000578;28;20026;-40
2023/08/26 09:47:37;;;;;;;4.28;3.88;;;24.00;99.90;;;;;;4998550;28;20022;-39
2023/08/26 09:50:04;;;;;;;8.43;3.80;;;24.10;99.90;;;;;;5002049;28;20682;-34
2023/08/26 09:52:30;;;;;;;4.35;3.65;;;24.30;99.90;;;;;;5010543;28;20268;-37
2023/08/26 09:54:58;;;;;;;6.40;4.03;;;24.10;99.90;;;;;;5002075;28;20042;-31
2023/08/26 09:57:24;;;;;;;8.82;4.22;;;24.00;99.90;;;;;;5004403;28;20549;-35
2023/08/26 09:59:51;;;;;;;4.45;3.72;;;24.10;99.90;;;;;;5001143;28;20077;-36
2023/08/26 10:02:21;;;;;;;6.00;3.85;;;24.10;99.90;;;;;;4997594;28;20081;-33
2023/08/26 10:04:52;;;;;;;6.07;3.67;;;24.10;99.90;;;;;;5004889;28;20037;-32
2023/08/26 10:07:18;;;;;;;7.07;4.78;;;24.30;99.90;;;;;;5002646;28;20061;-32
2023/08/26 10:09:54;;;;;;;5.05;4.03;;;24.30;99.90;;;;;;5004639;28;20025;-34
2023/08/26 10:12:33;;;;;;;4.38;3.97;;;24.30;99.90;;;;;;5004818;28;20041;-34
2023/08/26 10:15:02;;;;;;;5.43;4.30;;;24.40;99.90;;;;;;5000005;28;20087;-31
2023/08/26 10:17:30;;;;;;;8.13;4.80;;;24.00;99.90;;;;;;5006012;28;20726;-34
2023/08/26 10:19:57;;;;;;;10.23;4.60;;;23.90;99.90;;;;;;5004218;28;20041;-31
2023/08/26 10:22:24;;;;;;;6.85;4.43;;;24.00;99.90;;;;;;5001098;28;20077;-32
2023/08/26 10:24:50;;;;;;;5.77;4.50;;;24.00;99.90;;;;;;5002308;28;20699;-32
2023/08/26 10:27:16;;;;;;;5.80;4.35;;;24.00;99.90;;;;;;5000454;28;20097;-34
2023/08/26 10:29:43;;;;;;;6.05;4.50;;;23.80;99.90;;;;;;5004039;28;20038;-34
2023/08/26 10:32:20;;;;;;;5.85;4.30;;;23.50;99.90;;;;;;5002510;28;20030;-36
2023/08/26 10:34:56;;;;;;;6.90;5.37;;;23.30;99.90;;;;;;5007486;28;20060;-35
2023/08/26 10:37:34;;;;;;;7.45;5.60;;;23.20;99.90;;;;;;5005386;28;20499;-32
2023/08/26 10:40:14;;;;;;;6.22;5.05;;;23.10;99.90;;;;;;4999401;28;20486;-33
2023/08/26 10:43:04;;;;;;;8.43;4.90;;;23.00;99.90;;;;;;5002802;28;20034;-31
2023/08/26 10:45:30;;;;;;;5.78;5.18;;;23.00;99.90;;;;;;5002554;28;20056;-31
2023/08/26 10:47:55;;;;;;;7.45;5.57;;;22.90;99.90;;;;;;5002594;28;20401;-31
2023/08/26 10:50:23;;;;;;;7.38;5.70;;;22.80;99.90;;;;;;5003629;28;20041;-33
2023/08/26 10:52:52;;;;;;;8.02;4.97;;;22.80;99.90;;;;;;5002952;28;20036;-32
2023/08/26 10:55:23;;;;;;;7.63;5.47;;;22.90;99.90;;;;;;4998867;28;20172;-34
2023/08/26 10:58:02;;;;;;;8.00;5.63;;;22.90;99.90;;;;;;5003737;28;20115;-30
2023/08/26 11:00:27;;;;;;;7.32;5.55;;;23.00;99.90;;;;;;4998059;28;20069;-38
2023/08/26 11:02:54;;;;;;;9.10;4.93;;;23.00;99.90;;;;;;5005699;28;20574;-38
2023/08/26 11:05:21;;;;;;;7.38;5.15;;;23.10;99.90;;;;;;5006110;28;20116;-36
2023/08/26 11:07:47;;;;;;;7.53;5.43;;;23.00;99.90;;;;;;5002210;28;20149;-38
2023/08/26 11:10:35;;;;;;;7.80;5.07;;;23.10;99.90;;;;;;4997716;28;20584;-36
2023/08/26 11:13:01;;;;;;;5.88;4.57;;;23.10;99.90;;;;;;5002040;28;20026;-40
2023/08/26 11:15:40;;;;;;;6.57;4.70;;;23.10;99.90;;;;;;5005362;28;20053;-39
2023/08/26 11:18:07;;;;;;;5.80;4.45;;;23.20;99.90;;;;;;5000688;28;20029;-37
2023/08/26 11:20:33;;;;;;;8.50;4.90;;;23.20;99.90;;;;;;4999500;28;20034;-36
2023/08/26 11:23:01;;;;;;;7.70;5.50;;;23.20;99.90;;;;;;5000311;28;20037;-36
2023/08/26 11:25:27;;;;;;;9.20;5.82;;;23.20;99.90;;;;;;5000725;28;20042;-38
2023/08/26 11:27:54;;;;;;;7.03;4.60;;;23.20;99.90;;;;;;5001151;28;20365;-37
2023/08/26 11:30:19;;;;;;;7.95;5.45;;;23.20;99.90;;;;;;5001105;28;20057;-32
2023/08/26 11:32:49;;;;;;;7.93;5.20;;;23.10;99.90;;;;;;5005726;28;20543;-32
2023/08/26 11:35:15;;;;;;;6.10;5.00;;;23.10;99.90;;;;;;4999388;28;20498;-32
2023/08/26 11:37:43;;;;;;;5.95;5.38;;;23.10;99.90;;;;;;4996747;28;20086;-32
2023/08/26 11:40:13;;;;;;;8.27;4.70;;;23.10;99.90;;;;;;4999739;28;20045;-36
2023/08/26 11:42:38;;;;;;;6.85;4.90;;;23.10;99.90;;;;;;5000814;28;20030;-32
2023/08/26 11:45:13;;;;;;;5.25;4.70;;;23.10;99.90;;;;;;4998549;28;20056;-31
2023/08/26 11:47:42;;;;;;;7.85;4.95;;;23.20;99.90;;;;;;4997372;28;20495;-36
2023/08/26 11:50:11;;;;;;;5.97;4.40;;;23.20;99.90;;;;;;4999493;28;20630;-33
2023/08/26 11:52:38;;;;;;;6.40;4.35;;;23.30;99.90;;;;;;5003523;28;20030;-37
2023/08/26 11:55:06;;;;;;;5.03;4.32;;;23.30;99.90;;;;;;5001257;28;20022;-35
2023/08/26 11:57:39;;;;;;;;;;;23.30;99.90;;;;;;4996610;28;20109;-35
2023/08/26 12:00:07;;;;;;;7.63;4.30;;;23.40;99.90;;;;;;4998155;28;19916;-34
2023/08/26 12:02:32;;;;;;;;;;;23.50;99.90;;;;;;4999844;28;20041;-34
2023/08/26 12:04:58;;;;;;;9.45;4.43;;;23.60;99.90;;;;;;5004250;28;20298;-35
2023/08/26 12:07:29;;;;;;;6.70;4.32;;;23.50;99.90;;;;;;5000161;28;20026;-34
2023/08/26 12:10:08;;;;;;;8.30;4.53;;;23.50;99.90;;;;;;5000929;28;20416;-35
2023/08/26 12:12:35;;;;;;;7.78;4.32;;;23.50;99.90;;;;;;4997141;28;20061;-35
2023/08/26 12:15:30;;;;;;;6.68;4.13;;;23.50;99.90;;;;;;5000431;28;20045;-34
2023/08/26 12:17:57;;;;;;;6.43;4.10;;;23.50;99.90;;;;;;4983473;28;20125;-32
2023/08/26 12:20:24;;;;;;;6.78;4.68;;;23.50;99.90;;;;;;4999254;28;20583;-34
2023/08/26 12:22:51;;;;;;;4.57;4.13;;;23.60;99.90;;;;;;4994160;28;20030;-35
2023/08/26 12:25:24;;;;;;;6.38;4.28;;;23.50;99.90;;;;;;5000317;28;20030;-35
2023/08/26 12:27:50;;;;;;;12.02;4.80;;;23.40;99.90;;;;;;5003969;28;20480;-34
2023/08/26 12:30:16;;;;;;;8.45;4.55;;;23.30;99.90;;;;;;5002128;28;20033;-34
2023/08/26 12:32:41;;;;;;;6.13;4.32;;;23.30;99.90;;;;;;5001533;28;20050;-35
2023/08/26 12:35:08;;;;;;;6.75;4.13;;;23.20;99.90;;;;;;5003149;28;20038;-35
2023/08/26 12:37:34;;;;;;;5.85;4.53;;;23.20;99.90;;;;;;4993280;28;20066;-35
2023/08/26 12:40:03;;;;;;;6.65;4.82;;;23.10;99.90;;;;;;5000585;28;20040;-31
2023/08/26 12:42:28;;;;;;;7.13;4.60;;;23.10;99.90;;;;;;5004156;28;20407;-34
2023/08/26 12:44:54;;;;;;;8.80;4.70;;;23.10;99.90;;;;;;5004298;28;20030;-33
2023/08/26 12:47:20;;;;;;;4.72;4.22;;;23.10;99.90;;;;;;5000056;28;20026;-32
2023/08/26 12:49:46;;;;;;;10.27;4.28;;;23.20;99.90;;;;;;5004064;28;20104;-38